createdAt,value
2018-01-05T00:00:34.160Z,7.75
2018-01-05T00:01:34.117Z,7.85
2018-01-05T00:02:34.114Z,7.75
2018-01-05T00:03:34.151Z,7.72
2018-01-05T00:04:34.288Z,7.79
2018-01-05T00:05:34.120Z,7.77
2018-01-05T00:06:34.149Z,7.77
2018-01-05T00:07:34.016Z,7.72
2018-01-05T00:08:34.611Z,7.72
2018-01-05T00:09:33.985Z,7.80
2018-01-05T00:10:34.042Z,7.74
2018-01-05T00:11:34.609Z,7.80
2018-01-05T00:12:34.086Z,7.72
2018-01-05T00:13:33.937Z,7.77
2018-01-05T00:14:33.935Z,7.82
2018-01-05T00:15:33.892Z,7.82
2018-01-05T00:16:33.928Z,7.80
2018-01-05T00:17:33.867Z,7.79
2018-01-05T00:18:33.833Z,7.77
2018-01-05T00:19:33.826Z,7.79
2018-01-05T00:20:34.127Z,7.74
2018-01-05T00:21:33.790Z,7.79
2018-01-05T00:22:33.771Z,7.72
2018-01-05T00:23:33.846Z,7.85
2018-01-05T00:24:33.784Z,7.83
2018-01-05T00:25:33.810Z,7.83
2018-01-05T00:26:33.743Z,7.74
2018-01-05T00:27:33.680Z,7.69
2018-01-05T00:28:33.690Z,7.83
2018-01-05T00:29:34.622Z,7.74
2018-01-05T00:30:33.638Z,7.80
2018-01-05T00:31:33.659Z,7.77
2018-01-05T00:32:33.616Z,7.75
2018-01-05T00:33:33.633Z,7.80
2018-01-05T00:34:33.566Z,7.82
2018-01-05T00:35:33.570Z,7.80
2018-01-05T00:36:33.623Z,7.80
2018-01-05T00:37:33.520Z,7.75
2018-01-05T00:38:33.510Z,7.69
2018-01-05T00:39:33.493Z,7.79
2018-01-05T00:40:33.466Z,7.74
2018-01-05T00:41:33.442Z,7.75
2018-01-05T00:42:33.440Z,7.74
2018-01-05T00:43:33.410Z,7.71
2018-01-05T00:44:33.421Z,7.74
2018-01-05T00:45:33.382Z,7.71
2018-01-05T00:46:33.447Z,7.77
2018-01-05T00:47:33.337Z,7.82
2018-01-05T00:48:34.127Z,7.80
2018-01-05T00:49:33.335Z,7.79
2018-01-05T00:50:33.333Z,7.77
2018-01-05T00:51:33.285Z,7.80
2018-01-05T00:52:33.307Z,7.74
2018-01-05T00:53:33.257Z,7.74
2018-01-05T00:54:33.264Z,7.86
2018-01-05T00:55:33.227Z,7.75
2018-01-05T00:56:33.206Z,7.71
2018-01-05T00:57:33.248Z,7.71
2018-01-05T00:58:33.176Z,7.83
2018-01-05T00:59:33.166Z,7.87
2018-01-05T01:00:33.143Z,7.75
2018-01-05T01:01:33.136Z,7.80
2018-01-05T01:02:33.091Z,7.77
2018-01-05T01:03:33.127Z,7.75
2018-01-05T01:04:33.110Z,7.80
2018-01-05T01:05:33.064Z,7.75
2018-01-05T01:06:33.050Z,7.75
2018-01-05T01:07:33.162Z,7.85
2018-01-05T01:08:33.073Z,7.77
2018-01-05T01:09:33.037Z,7.85
2018-01-05T01:10:32.974Z,7.86
2018-01-05T01:11:32.962Z,7.85
2018-01-05T01:12:33.108Z,7.80
2018-01-05T01:13:32.933Z,7.80
2018-01-05T01:14:32.954Z,7.75
2018-01-05T01:15:32.890Z,7.75
2018-01-05T01:16:32.866Z,7.75
2018-01-05T01:17:32.836Z,7.85
2018-01-05T01:18:32.853Z,7.82
2018-01-05T01:19:32.812Z,7.74
2018-01-05T01:20:32.803Z,7.82
2018-01-05T01:21:32.794Z,7.80
2018-01-05T01:22:32.759Z,7.83
2018-01-05T01:23:32.844Z,7.80
2018-01-05T01:24:32.746Z,7.83
2018-01-05T01:25:32.729Z,7.83
2018-01-05T01:26:32.746Z,7.85
2018-01-05T01:27:32.695Z,7.82
2018-01-05T01:28:32.654Z,7.89
2018-01-05T01:29:33.619Z,7.85
2018-01-05T01:30:32.624Z,7.87
2018-01-05T01:31:32.673Z,7.83
2018-01-05T01:32:32.631Z,7.86
2018-01-05T01:33:32.587Z,7.90
2018-01-05T01:34:32.588Z,7.80
2018-01-05T01:35:32.544Z,7.82
2018-01-05T01:36:32.543Z,7.82
2018-01-05T01:37:32.531Z,7.82
2018-01-05T01:38:32.501Z,7.75
2018-01-05T01:39:32.496Z,7.87
2018-01-05T01:40:32.478Z,7.82
2018-01-05T01:41:32.518Z,7.80
2018-01-05T01:42:32.459Z,7.85
2018-01-05T01:43:32.467Z,7.80
2018-01-05T01:44:32.410Z,7.90
2018-01-05T01:45:32.431Z,7.87
2018-01-05T01:46:32.398Z,7.89
2018-01-05T01:47:32.402Z,7.86
2018-01-05T01:48:32.375Z,7.90
2018-01-05T01:49:32.323Z,7.80
2018-01-05T01:50:32.305Z,7.74
2018-01-05T01:51:32.300Z,7.85
2018-01-05T01:52:32.279Z,7.75
2018-01-05T01:53:32.299Z,7.85
2018-01-05T01:54:32.251Z,7.85
2018-01-05T01:55:32.228Z,7.80
2018-01-05T01:56:32.217Z,7.82
2018-01-05T01:57:32.206Z,7.82
2018-01-05T01:58:33.126Z,7.85
2018-01-05T01:59:32.213Z,7.71
2018-01-05T02:00:32.169Z,7.83
2018-01-05T02:01:33.117Z,7.86
2018-01-05T02:02:32.099Z,7.82
2018-01-05T02:03:32.145Z,7.83
2018-01-05T02:04:32.107Z,7.82
2018-01-05T02:05:32.057Z,7.79
2018-01-05T02:06:32.043Z,7.79
2018-01-05T02:07:32.051Z,7.85
2018-01-05T02:08:32.001Z,7.83
2018-01-05T02:09:32.120Z,7.79
2018-01-05T02:10:31.998Z,7.74
2018-01-05T02:11:31.956Z,7.86
2018-01-05T02:12:31.932Z,7.80
2018-01-05T02:13:31.928Z,7.86
2018-01-05T02:14:31.919Z,7.72
2018-01-05T02:15:31.929Z,7.71
2018-01-05T02:16:31.880Z,7.83
2018-01-05T02:17:31.851Z,7.82
2018-01-05T02:18:31.839Z,7.75
2018-01-05T02:19:31.825Z,7.80
2018-01-05T02:20:31.842Z,7.87
2018-01-05T02:21:31.792Z,7.75
2018-01-05T02:22:31.791Z,7.85
2018-01-05T02:23:32.616Z,7.77
2018-01-05T02:24:31.740Z,7.82
2018-01-05T02:25:31.756Z,7.75
2018-01-05T02:26:31.714Z,7.77
2018-01-05T02:27:31.745Z,7.85
2018-01-05T02:28:31.674Z,7.71
2018-01-05T02:29:31.657Z,7.82
2018-01-05T02:30:31.634Z,7.79
2018-01-05T02:31:32.625Z,7.77
2018-01-05T02:32:31.612Z,7.80
2018-01-05T02:33:31.646Z,7.85
2018-01-05T02:34:31.566Z,7.77
2018-01-05T02:35:31.554Z,7.80
2018-01-05T02:36:31.536Z,7.80
2018-01-05T02:37:31.528Z,7.77
2018-01-05T02:38:31.526Z,7.77
2018-01-05T02:39:31.496Z,7.71
2018-01-05T02:40:31.488Z,7.75
2018-01-05T02:41:31.463Z,7.83
2018-01-05T02:42:31.433Z,7.64
2018-01-05T02:43:31.461Z,7.72
2018-01-05T02:44:31.406Z,7.74
2018-01-05T02:45:31.421Z,7.83
2018-01-05T02:46:31.373Z,7.74
2018-01-05T02:47:31.362Z,7.72
2018-01-05T02:48:31.358Z,7.77
2018-01-05T02:49:31.325Z,7.69
2018-01-05T02:50:31.334Z,7.75
2018-01-05T02:51:31.291Z,7.64
2018-01-05T02:52:31.355Z,7.74
2018-01-05T02:53:31.259Z,7.74
2018-01-05T02:54:31.244Z,7.75
2018-01-05T02:55:31.294Z,7.68
2018-01-05T02:56:31.213Z,7.64
2018-01-05T02:57:31.202Z,7.60
2018-01-05T02:58:31.169Z,7.60
2018-01-05T02:59:31.159Z,7.53
2018-01-05T03:00:31.150Z,7.68
2018-01-05T03:01:31.121Z,7.67
2018-01-05T03:02:31.637Z,7.61
2018-01-05T03:03:31.100Z,7.64
2018-01-05T03:04:31.079Z,7.63
2018-01-05T03:05:31.072Z,7.64
2018-01-05T03:06:31.622Z,7.61
2018-01-05T03:07:31.024Z,7.52
2018-01-05T03:08:31.017Z,7.55
2018-01-05T03:09:30.988Z,7.52
2018-01-05T03:10:30.979Z,7.55
2018-01-05T03:11:30.961Z,7.55
2018-01-05T03:12:31.013Z,7.57
2018-01-05T03:13:30.945Z,7.52
2018-01-05T03:14:30.915Z,7.50
2018-01-05T03:15:30.907Z,7.58
2018-01-05T03:16:30.876Z,7.64
2018-01-05T03:17:30.868Z,7.58
2018-01-05T03:18:30.898Z,7.50
2018-01-05T03:19:30.835Z,7.48
2018-01-05T03:20:30.807Z,7.55
2018-01-05T03:21:30.800Z,7.61
2018-01-05T03:22:30.781Z,7.64
2018-01-05T03:23:30.782Z,7.61
2018-01-05T03:24:30.746Z,7.55
2018-01-05T03:25:30.717Z,7.67
2018-01-05T03:26:30.703Z,7.67
2018-01-05T03:27:30.690Z,7.61
2018-01-05T03:28:32.129Z,7.61
2018-01-05T03:29:31.659Z,7.69
2018-01-05T03:30:30.642Z,7.71
2018-01-05T03:31:30.632Z,7.71
2018-01-05T03:32:30.606Z,7.68
2018-01-05T03:33:30.590Z,7.69
2018-01-05T03:34:31.812Z,7.67
2018-01-05T03:35:30.581Z,7.64
2018-01-05T03:36:30.556Z,7.50
2018-01-05T03:37:30.534Z,7.52
2018-01-05T03:38:30.498Z,7.60
2018-01-05T03:39:30.497Z,7.52
2018-01-05T03:40:30.486Z,7.55
2018-01-05T03:41:30.577Z,7.52
2018-01-05T03:42:31.134Z,7.49
2018-01-05T03:43:30.426Z,7.49
2018-01-05T03:44:30.421Z,7.48
2018-01-05T03:45:30.450Z,7.46
2018-01-05T03:46:30.373Z,7.43
2018-01-05T03:47:30.357Z,7.50
2018-01-05T03:48:30.362Z,7.45
2018-01-05T03:49:30.324Z,7.45
2018-01-05T03:50:30.309Z,7.45
2018-01-05T03:51:30.349Z,7.49
2018-01-05T03:52:30.288Z,7.43
2018-01-05T03:53:30.254Z,7.46
2018-01-05T03:54:30.525Z,7.45
2018-01-05T03:55:30.230Z,7.50
2018-01-05T03:56:30.234Z,7.48
2018-01-05T03:57:30.198Z,7.50
2018-01-05T03:58:30.186Z,7.42
2018-01-05T03:59:30.229Z,7.48
2018-01-05T04:00:30.153Z,7.48
2018-01-05T04:01:30.125Z,7.43
2018-01-05T04:02:30.163Z,7.40
2018-01-05T04:03:30.098Z,7.37
2018-01-05T04:04:34.790Z,7.49
2018-01-05T04:05:30.072Z,7.45
2018-01-05T04:06:30.043Z,7.45
2018-01-05T04:07:30.037Z,7.45
2018-01-05T04:08:30.063Z,7.50
2018-01-05T04:09:29.991Z,7.45
2018-01-05T04:10:30.029Z,7.49
2018-01-05T04:11:29.949Z,7.57
2018-01-05T04:12:29.933Z,7.60
2018-01-05T04:13:29.932Z,7.55
2018-01-05T04:14:29.914Z,7.60
2018-01-05T04:15:29.881Z,7.50
2018-01-05T04:16:29.912Z,7.48
2018-01-05T04:17:29.867Z,7.58
2018-01-05T04:18:29.846Z,7.52
2018-01-05T04:19:29.821Z,7.49
2018-01-05T04:20:29.804Z,7.53
2018-01-05T04:21:29.791Z,7.57
2018-01-05T04:22:29.770Z,7.55
2018-01-05T04:23:29.756Z,7.55
2018-01-05T04:24:29.738Z,7.52
2018-01-05T04:25:29.744Z,7.57
2018-01-05T04:26:29.708Z,7.60
2018-01-05T04:27:29.741Z,7.63
2018-01-05T04:28:29.677Z,7.52
2018-01-05T04:29:29.648Z,7.55
2018-01-05T04:30:29.638Z,7.61
2018-01-05T04:31:29.625Z,7.64
2018-01-05T04:32:29.606Z,7.53
2018-01-05T04:33:29.614Z,7.64
2018-01-05T04:34:29.583Z,7.67
2018-01-05T04:35:29.556Z,7.63
2018-01-05T04:36:29.544Z,7.67
2018-01-05T04:37:29.510Z,7.67
2018-01-05T04:38:29.539Z,7.63
2018-01-05T04:39:29.496Z,7.60
2018-01-05T04:40:29.465Z,7.53
2018-01-05T04:41:29.453Z,7.61
2018-01-05T04:42:29.444Z,7.60
2018-01-05T04:43:29.429Z,7.71
2018-01-05T04:44:29.440Z,7.74
2018-01-05T04:45:29.386Z,7.72
2018-01-05T04:46:29.371Z,7.77
2018-01-05T04:47:29.346Z,7.75
2018-01-05T04:48:29.341Z,7.77
2018-01-05T04:49:29.393Z,7.72
2018-01-05T04:50:29.305Z,7.80
2018-01-05T04:51:29.288Z,7.72
2018-01-05T04:52:29.278Z,7.79
2018-01-05T04:53:29.254Z,7.79
2018-01-05T04:54:29.258Z,7.79
2018-01-05T04:55:29.257Z,7.71
2018-01-05T04:56:29.239Z,7.83
2018-01-05T04:57:29.189Z,7.82
2018-01-05T04:58:29.162Z,7.77
2018-01-05T04:59:29.153Z,7.79
2018-01-05T05:00:29.132Z,7.64
2018-01-05T05:01:29.182Z,7.71
2018-01-05T05:02:29.111Z,7.79
2018-01-05T05:03:29.094Z,7.75
2018-01-05T05:04:29.071Z,7.79
2018-01-05T05:05:29.051Z,7.80
2018-01-05T05:06:29.039Z,7.82
2018-01-05T05:07:29.023Z,7.80
2018-01-05T05:08:28.997Z,7.77
2018-01-05T05:09:28.990Z,7.77
2018-01-05T05:10:28.968Z,7.74
2018-01-05T05:11:28.954Z,7.77
2018-01-05T05:12:28.976Z,7.90
2018-01-05T05:13:28.937Z,7.74
2018-01-05T05:14:28.908Z,7.74
2018-01-05T05:15:28.895Z,7.77
2018-01-05T05:16:28.869Z,7.82
2018-01-05T05:17:28.851Z,7.89
2018-01-05T05:18:28.870Z,7.86
2018-01-05T05:19:28.836Z,7.80
2018-01-05T05:20:28.815Z,7.87
2018-01-05T05:21:28.797Z,7.83
2018-01-05T05:22:28.775Z,7.87
2018-01-05T05:23:28.798Z,7.89
2018-01-05T05:24:28.753Z,7.80
2018-01-05T05:25:28.728Z,7.82
2018-01-05T05:26:28.712Z,7.83
2018-01-05T05:27:28.686Z,7.82
2018-01-05T05:28:28.703Z,7.83
2018-01-05T05:29:28.666Z,7.83
2018-01-05T05:30:28.634Z,7.92
2018-01-05T05:31:28.625Z,7.89
2018-01-05T05:32:28.605Z,7.90
2018-01-05T05:33:28.656Z,7.95
2018-01-05T05:34:28.580Z,7.97
2018-01-05T05:35:28.549Z,8.01
2018-01-05T05:36:28.539Z,8.07
2018-01-05T05:37:28.527Z,8.05
2018-01-05T05:38:28.502Z,8.04
2018-01-05T05:39:28.497Z,8.11
2018-01-05T05:40:28.477Z,8.08
2018-01-05T05:41:28.472Z,8.10
2018-01-05T05:42:28.443Z,8.10
2018-01-05T05:43:28.436Z,8.05
2018-01-05T05:44:28.474Z,8.11
2018-01-05T05:45:28.401Z,8.10
2018-01-05T05:46:28.385Z,8.11
2018-01-05T05:47:28.361Z,7.97
2018-01-05T05:48:28.353Z,8.02
2018-01-05T05:49:28.333Z,7.93
2018-01-05T05:50:28.349Z,7.98
2018-01-05T05:51:28.290Z,7.89
2018-01-05T05:52:28.282Z,7.92
2018-01-05T05:53:28.272Z,8.00
2018-01-05T05:54:28.261Z,7.92
2018-01-05T05:55:28.232Z,7.95
2018-01-05T05:56:28.219Z,7.90
2018-01-05T05:57:28.233Z,7.92
2018-01-05T05:58:28.184Z,7.89
2018-01-05T05:59:28.165Z,7.97
2018-01-05T06:00:28.179Z,8.00
2018-01-05T06:01:28.144Z,8.00
2018-01-05T06:02:28.118Z,8.02
2018-01-05T06:03:28.098Z,8.01
2018-01-05T06:04:28.084Z,7.97
2018-01-05T06:05:28.093Z,7.95
2018-01-05T06:06:28.069Z,7.90
2018-01-05T06:07:28.037Z,7.93
2018-01-05T06:08:28.020Z,7.90
2018-01-05T06:09:28.004Z,7.93
2018-01-05T06:10:27.999Z,7.90
2018-01-05T06:11:27.978Z,7.90
2018-01-05T06:12:27.945Z,7.80
2018-01-05T06:13:27.944Z,7.86
2018-01-05T06:14:27.922Z,7.79
2018-01-05T06:15:27.906Z,7.79
2018-01-05T06:16:27.954Z,7.82
2018-01-05T06:17:27.865Z,7.74
2018-01-05T06:18:27.860Z,7.72
2018-01-05T06:19:27.849Z,7.77
2018-01-05T06:20:27.817Z,7.53
2018-01-05T06:21:27.816Z,7.52
2018-01-05T06:22:27.823Z,7.55
2018-01-05T06:23:27.777Z,7.58
2018-01-05T06:24:27.757Z,7.53
2018-01-05T06:25:27.750Z,7.42
2018-01-05T06:26:27.718Z,7.39
2018-01-05T06:27:27.751Z,7.30
2018-01-05T06:28:27.699Z,7.37
2018-01-05T06:29:27.667Z,7.43
2018-01-05T06:30:27.659Z,7.39
2018-01-05T06:31:27.635Z,7.34
2018-01-05T06:32:27.664Z,7.28
2018-01-05T06:33:27.602Z,7.34
2018-01-05T06:34:27.592Z,7.27
2018-01-05T06:35:27.574Z,7.28
2018-01-05T06:36:27.560Z,7.23
2018-01-05T06:37:27.602Z,7.17
2018-01-05T06:38:27.524Z,7.24
2018-01-05T06:39:27.512Z,7.21
2018-01-05T06:40:27.492Z,7.24
2018-01-05T06:41:27.477Z,7.20
2018-01-05T06:42:27.452Z,7.20
2018-01-05T06:43:27.456Z,7.23
2018-01-05T06:44:27.421Z,7.25
2018-01-05T06:45:27.405Z,7.23
2018-01-05T06:46:27.385Z,7.21
2018-01-05T06:47:27.450Z,7.15
2018-01-05T06:48:27.352Z,7.16
2018-01-05T06:49:27.330Z,7.15
2018-01-05T06:50:27.310Z,7.06
2018-01-05T06:51:27.297Z,7.06
2018-01-05T06:52:27.294Z,7.03
2018-01-05T06:53:27.299Z,7.05
2018-01-05T06:54:27.249Z,7.10
2018-01-05T06:55:27.239Z,7.13
2018-01-05T06:56:27.216Z,7.06
2018-01-05T06:57:27.209Z,6.98
2018-01-05T06:58:27.224Z,7.09
2018-01-05T06:59:27.170Z,7.09
2018-01-05T07:00:27.162Z,7.05
2018-01-05T07:01:27.138Z,7.06
2018-01-05T07:02:27.116Z,7.06
2018-01-05T07:03:27.131Z,7.05
2018-01-05T07:04:27.149Z,6.99
2018-01-05T07:05:27.087Z,7.02
2018-01-05T07:06:27.052Z,7.07
2018-01-05T07:07:27.028Z,6.99
2018-01-05T07:08:27.012Z,7.02
2018-01-05T07:09:26.993Z,7.05
2018-01-05T07:10:26.988Z,7.06
2018-01-05T07:11:26.959Z,6.97
2018-01-05T07:12:26.948Z,7.16
2018-01-05T07:13:26.919Z,7.12
2018-01-05T07:14:27.220Z,7.02
2018-01-05T07:15:26.891Z,6.99
2018-01-05T07:16:26.875Z,7.06
2018-01-05T07:17:26.864Z,7.15
2018-01-05T07:18:26.884Z,7.13
2018-01-05T07:19:26.838Z,7.13
2018-01-05T07:20:26.819Z,7.10
2018-01-05T07:21:26.787Z,7.25
2018-01-05T07:22:26.789Z,7.12
2018-01-05T07:23:26.821Z,7.13
2018-01-05T07:24:26.741Z,7.15
2018-01-05T07:25:26.735Z,7.10
2018-01-05T07:26:26.701Z,7.12
2018-01-05T07:27:27.659Z,6.99
2018-01-05T07:28:26.697Z,7.09
2018-01-05T07:29:26.714Z,7.05
2018-01-05T07:30:26.637Z,7.03
2018-01-05T07:31:26.624Z,7.02
2018-01-05T07:32:26.615Z,7.15
2018-01-05T07:33:26.599Z,7.10
2018-01-05T07:34:26.559Z,7.06
2018-01-05T07:35:26.588Z,7.05
2018-01-05T07:36:26.547Z,6.98
2018-01-05T07:37:26.530Z,7.06
2018-01-05T07:38:26.509Z,7.09
2018-01-05T07:39:26.493Z,7.06
2018-01-05T07:40:26.536Z,7.05
2018-01-05T07:41:26.495Z,7.05
2018-01-05T07:42:26.448Z,6.95
2018-01-05T07:43:26.431Z,7.02
2018-01-05T07:44:26.400Z,7.06
2018-01-05T07:45:26.374Z,6.97
2018-01-05T07:46:26.367Z,7.02
2018-01-05T07:47:26.343Z,7.06
2018-01-05T07:48:26.355Z,6.91
2018-01-05T07:49:26.364Z,7.02
2018-01-05T07:50:26.290Z,7.09
2018-01-05T07:51:26.277Z,7.07
2018-01-05T07:52:26.257Z,6.98
2018-01-05T07:53:26.238Z,6.99
2018-01-05T07:54:26.228Z,7.05
2018-01-05T07:55:26.397Z,6.99
2018-01-05T07:56:26.204Z,6.99
2018-01-05T07:57:26.177Z,7.05
2018-01-05T07:58:26.218Z,6.97
2018-01-05T07:59:26.221Z,6.95
2018-01-05T08:00:26.128Z,6.95
2018-01-05T08:01:26.162Z,6.89
2018-01-05T08:02:26.093Z,6.88
2018-01-05T08:03:26.090Z,6.92
2018-01-05T08:04:26.072Z,6.89
2018-01-05T08:05:26.050Z,6.91
2018-01-05T08:06:26.026Z,6.94
2018-01-05T08:07:26.041Z,6.95
2018-01-05T08:08:25.994Z,7.05
2018-01-05T08:09:25.979Z,7.02
2018-01-05T08:10:25.956Z,6.98
2018-01-05T08:11:25.936Z,7.06
2018-01-05T08:12:25.953Z,7.02
2018-01-05T08:13:25.911Z,6.98
2018-01-05T08:14:25.893Z,6.97
2018-01-05T08:15:25.903Z,7.05
2018-01-05T08:16:25.870Z,7.07
2018-01-05T08:17:25.885Z,7.07
2018-01-05T08:18:25.848Z,7.12
2018-01-05T08:19:25.806Z,7.15
2018-01-05T08:20:26.673Z,7.12
2018-01-05T08:21:25.761Z,6.98
2018-01-05T08:22:25.762Z,6.99
2018-01-05T08:23:25.767Z,6.98
2018-01-05T08:24:25.783Z,6.99
2018-01-05T08:25:25.705Z,7.03
2018-01-05T08:26:25.686Z,7.05
2018-01-05T08:27:25.661Z,6.94
2018-01-05T08:28:25.651Z,6.94
2018-01-05T08:29:25.623Z,6.95
2018-01-05T08:30:25.664Z,6.95
2018-01-05T08:31:25.599Z,6.81
2018-01-05T08:32:25.579Z,6.84
2018-01-05T08:33:25.560Z,6.87
2018-01-05T08:34:25.539Z,6.76
2018-01-05T08:35:25.602Z,6.73
2018-01-05T08:36:25.556Z,6.67
2018-01-05T08:37:25.500Z,6.70
2018-01-05T08:38:25.634Z,6.81
2018-01-05T08:39:25.613Z,6.69
2018-01-05T08:40:27.300Z,6.70
2018-01-05T08:41:25.506Z,6.69
2018-01-05T08:42:25.399Z,6.73
2018-01-05T08:43:25.384Z,6.67
2018-01-05T08:44:25.389Z,6.67
2018-01-05T08:45:25.382Z,6.64
2018-01-05T08:46:25.341Z,6.64
2018-01-05T08:47:25.357Z,6.64
2018-01-05T08:48:25.382Z,6.69
2018-01-05T08:49:25.841Z,6.70
2018-01-05T08:50:25.277Z,6.66
2018-01-05T08:51:25.266Z,6.64
2018-01-05T08:52:25.366Z,6.67
2018-01-05T08:53:25.228Z,6.64
2018-01-05T08:54:25.414Z,6.56
2018-01-05T08:55:25.230Z,6.56
2018-01-05T08:56:25.224Z,6.56
2018-01-05T08:57:25.151Z,6.67
2018-01-05T08:58:25.250Z,6.71
2018-01-05T08:59:25.220Z,6.58
2018-01-05T09:00:29.190Z,6.46
2018-01-05T09:03:30.093Z,6.54
2018-01-05T09:04:31.910Z,6.49
2018-01-05T09:05:34.785Z,6.58
2018-01-05T09:06:30.027Z,6.52
2018-01-05T09:07:29.982Z,6.48
2018-01-05T09:08:30.922Z,6.49
2018-01-05T09:09:30.925Z,6.49
2018-01-05T09:10:29.855Z,6.58
2018-01-05T09:11:32.740Z,6.59
2018-01-05T09:12:32.624Z,6.58
2018-01-05T09:13:30.063Z,6.51
2018-01-05T09:14:29.809Z,6.58
2018-01-05T09:15:29.999Z,6.56
2018-01-05T09:16:29.767Z,6.58
2018-01-05T09:17:29.791Z,6.59
2018-01-05T09:18:29.722Z,6.66
2018-01-05T09:19:29.697Z,6.67
2018-01-05T09:20:29.691Z,6.62
2018-01-05T09:21:29.940Z,6.59
2018-01-05T09:22:30.936Z,6.56
2018-01-05T09:23:30.168Z,6.59
2018-01-05T09:24:29.629Z,6.67
2018-01-05T09:25:29.601Z,6.69
2018-01-05T09:26:34.133Z,6.66
2018-01-05T09:27:31.590Z,6.70
2018-01-05T09:28:29.692Z,6.71
2018-01-05T09:29:29.597Z,6.64
2018-01-05T09:30:29.533Z,6.66
2018-01-05T09:31:29.509Z,6.70
2018-01-05T09:32:29.510Z,6.66
2018-01-05T09:33:29.483Z,6.69
2018-01-05T09:34:31.155Z,6.67
2018-01-05T09:35:29.679Z,6.66
2018-01-05T09:36:29.486Z,6.70
2018-01-05T09:37:29.416Z,6.71
2018-01-05T09:38:29.437Z,6.71
2018-01-05T09:39:29.609Z,6.70
2018-01-05T09:40:30.141Z,6.69
2018-01-05T09:41:30.138Z,6.71
2018-01-05T09:42:29.313Z,6.70
2018-01-05T09:43:29.296Z,6.71
2018-01-05T09:44:29.278Z,6.70
2018-01-05T09:45:29.292Z,6.64
2018-01-05T09:46:29.245Z,6.70
2018-01-05T09:47:29.224Z,6.70
2018-01-05T09:48:29.471Z,6.70
2018-01-05T09:49:29.195Z,6.69
2018-01-05T09:50:29.205Z,6.76
2018-01-05T09:51:29.163Z,6.73
2018-01-05T09:52:29.147Z,6.77
2018-01-05T09:53:29.134Z,6.87
2018-01-05T09:54:29.146Z,6.81
2018-01-05T09:55:29.153Z,6.85
2018-01-05T09:56:29.079Z,6.87
2018-01-05T09:57:29.060Z,6.84
2018-01-05T09:58:29.040Z,6.85
2018-01-05T09:59:29.016Z,6.84
2018-01-05T10:00:29.005Z,6.88
2018-01-05T10:01:29.013Z,6.89
2018-01-05T10:02:28.990Z,6.88
2018-01-05T10:03:28.947Z,6.92
2018-01-05T10:04:28.936Z,6.95
2018-01-05T10:05:28.925Z,6.91
2018-01-05T10:06:28.968Z,6.88
2018-01-05T10:07:28.897Z,7.02
2018-01-05T10:08:28.868Z,7.05
2018-01-05T10:09:33.649Z,6.99
2018-01-05T10:10:28.866Z,7.02
2018-01-05T10:11:40.130Z,7.05
2018-01-05T10:12:30.353Z,6.92
2018-01-05T10:13:31.729Z,7.03
2018-01-05T10:14:31.630Z,6.95
2018-01-05T10:15:28.823Z,6.91
2018-01-05T10:16:28.856Z,6.88
2018-01-05T10:17:31.356Z,6.92
2018-01-05T10:18:28.780Z,6.91
2018-01-05T10:19:28.694Z,6.94
2018-01-05T10:20:30.056Z,7.06
2018-01-05T10:21:39.724Z,7.06
2018-01-05T10:22:28.920Z,7.05
2018-01-05T10:23:28.717Z,7.10
2018-01-05T10:24:29.051Z,7.06
2018-01-05T10:25:28.673Z,6.99
2018-01-05T10:26:29.314Z,7.02
2018-01-05T10:30:35.068Z,7.03
2018-01-05T10:31:25.666Z,6.97
2018-01-05T10:32:25.522Z,7.03
2018-01-05T10:33:25.385Z,7.06
2018-01-05T10:34:25.381Z,7.05
2018-01-05T10:35:25.321Z,7.02
2018-01-05T10:36:25.295Z,7.06
2018-01-05T10:37:25.295Z,7.03
2018-01-05T10:38:25.325Z,7.03
2018-01-05T10:39:25.260Z,7.09
2018-01-05T10:47:22.150Z,7.20
2018-01-05T10:48:01.195Z,7.20
2018-01-05T10:49:15.390Z,7.27
2018-01-05T10:50:02.053Z,7.37
2018-01-05T10:53:09.738Z,7.32
2018-01-05T10:54:09.761Z,7.40
2018-01-05T10:55:09.701Z,7.32
2018-01-05T10:56:09.645Z,7.40
2018-01-05T10:57:09.713Z,7.37
2018-01-05T10:58:11.504Z,7.37
2018-01-05T10:59:09.600Z,7.39
2018-01-05T11:00:09.624Z,7.32
2018-01-05T11:01:09.555Z,7.40
2018-01-05T11:02:09.540Z,7.37
2018-01-05T11:03:10.025Z,7.32
2018-01-05T11:04:09.519Z,7.43
2018-01-05T11:07:47.429Z,7.57
2018-01-05T11:08:47.383Z,7.53
2018-01-05T11:09:47.373Z,7.52
2018-01-05T11:10:48.654Z,7.55
2018-01-05T11:11:47.337Z,7.49
2018-01-05T11:12:59.528Z,7.50
2018-01-05T11:13:47.320Z,7.67
2018-01-05T11:14:47.311Z,7.75
2018-01-05T11:15:47.280Z,7.67
2018-01-05T11:16:47.420Z,7.74
2018-01-05T11:17:47.277Z,7.67
2018-01-05T11:18:47.228Z,7.71
2018-01-05T11:19:47.205Z,7.58
2018-01-05T11:20:47.201Z,7.64
2018-01-05T11:21:47.172Z,7.61
2018-01-05T11:22:47.185Z,7.72
2018-01-05T11:23:47.133Z,7.79
2018-01-05T11:24:47.119Z,7.80
2018-01-05T11:25:47.110Z,7.82
2018-01-05T11:26:47.095Z,7.77
2018-01-05T11:27:47.129Z,7.77
2018-01-05T11:28:47.049Z,7.85
2018-01-05T11:29:47.035Z,7.75
2018-01-05T11:30:47.032Z,7.72
2018-01-05T11:31:47.012Z,7.77
2018-01-05T11:32:46.995Z,7.80
2018-01-05T11:33:46.975Z,7.86
2018-01-05T11:34:46.961Z,7.83
2018-01-05T11:35:46.944Z,7.92
2018-01-05T11:36:46.933Z,7.87
2018-01-05T11:37:46.915Z,7.87
2018-01-05T11:38:46.976Z,7.85
2018-01-05T11:39:47.091Z,7.93
2018-01-05T11:40:46.859Z,7.93
2018-01-05T11:41:46.856Z,7.90
2018-01-05T11:42:46.842Z,7.87
2018-01-05T11:43:46.826Z,7.93
2018-01-05T11:44:47.761Z,7.89
2018-01-05T11:45:47.755Z,7.92
2018-01-05T11:49:39.046Z,7.90
2018-01-05T11:49:52.188Z,8.07
2018-01-05T11:50:52.077Z,8.00
2018-01-05T11:51:53.631Z,7.95
2018-01-05T11:52:53.147Z,7.93
2018-01-05T11:53:52.027Z,7.90
2018-01-05T11:54:52.001Z,7.86
2018-01-05T11:55:52.009Z,7.83
2018-01-05T11:56:52.138Z,7.87
2018-01-05T11:57:56.791Z,7.86
2018-01-05T11:58:55.915Z,7.87
2018-01-05T11:59:51.937Z,7.82
2018-01-05T12:00:51.992Z,7.80
2018-01-05T12:01:52.490Z,7.85
2018-01-05T12:02:51.908Z,7.87
2018-01-05T12:03:51.856Z,7.87
2018-01-05T12:04:54.673Z,7.85
2018-01-05T12:05:51.816Z,7.79
2018-01-05T12:06:51.818Z,7.85
2018-01-05T12:07:51.824Z,7.89
2018-01-05T12:08:51.782Z,7.85
2018-01-05T12:10:01.618Z,7.89
2018-01-05T12:10:51.765Z,7.92
2018-01-05T12:11:51.756Z,7.95
2018-01-05T12:12:51.710Z,8.00
2018-01-05T12:13:51.696Z,8.04
2018-01-05T12:14:51.693Z,8.07
2018-01-05T12:15:51.660Z,7.95
2018-01-05T12:16:52.792Z,7.95
2018-01-05T12:17:54.903Z,7.98
2018-01-05T12:18:51.682Z,7.95
2018-01-05T12:19:51.606Z,7.87
2018-01-05T12:20:51.596Z,7.95
2018-01-05T12:21:51.575Z,7.92
2018-01-05T12:22:51.552Z,7.83
2018-01-05T12:23:51.570Z,7.90
2018-01-05T12:24:51.715Z,7.89
2018-01-05T12:25:51.548Z,7.87
2018-01-05T12:26:51.504Z,7.87
2018-01-05T12:27:51.469Z,7.87
2018-01-05T12:28:51.501Z,7.82
2018-01-05T12:29:51.448Z,7.80
2018-01-05T12:30:51.422Z,7.85
2018-01-05T12:31:51.405Z,7.89
2018-01-05T12:32:51.376Z,7.98
2018-01-05T12:33:51.384Z,8.04
2018-01-05T12:34:51.413Z,8.02
2018-01-05T12:35:51.423Z,8.05
2018-01-05T12:36:51.347Z,8.15
2018-01-05T12:37:51.300Z,8.08
2018-01-05T12:38:51.282Z,8.08
2018-01-05T12:39:51.270Z,8.05
2018-01-05T12:40:51.903Z,8.12
2018-01-05T12:41:51.253Z,8.08
2018-01-05T12:42:51.218Z,8.07
2018-01-05T12:43:51.224Z,8.11
2018-01-05T12:44:51.393Z,8.18
2018-01-05T12:45:52.341Z,8.08
2018-01-05T12:46:52.328Z,8.18
2018-01-05T12:47:51.152Z,8.20
2018-01-05T12:48:51.130Z,8.10
2018-01-05T12:49:51.124Z,8.22
2018-01-05T12:50:51.102Z,8.05
2018-01-05T12:51:51.120Z,8.08
2018-01-05T12:52:51.065Z,8.18
2018-01-05T12:53:51.059Z,8.20
2018-01-05T12:54:51.069Z,8.22
2018-01-05T12:55:51.023Z,8.30
2018-01-05T12:56:51.061Z,8.34
2018-01-05T12:57:50.996Z,8.28
2018-01-05T12:58:52.671Z,8.30
2018-01-05T12:59:50.947Z,8.23
2018-01-05T13:00:50.975Z,8.25
2018-01-05T13:01:50.921Z,8.26
2018-01-05T13:02:50.909Z,8.29
2018-01-05T13:03:50.953Z,8.36
2018-01-05T13:04:51.110Z,8.33
2018-01-05T13:05:50.859Z,8.26
2018-01-05T13:06:50.849Z,8.33
2018-01-05T13:07:50.836Z,8.26
2018-01-05T13:08:50.812Z,8.23
2018-01-05T13:09:50.800Z,8.22
2018-01-05T13:10:50.887Z,8.19
2018-01-05T13:11:50.758Z,8.28
2018-01-05T13:12:50.746Z,8.29
2018-01-05T13:13:50.734Z,8.28
2018-01-05T13:14:50.752Z,8.25
2018-01-05T13:15:50.699Z,8.23
2018-01-05T13:16:50.685Z,8.23
2018-01-05T13:17:50.667Z,8.28
2018-01-05T13:18:50.644Z,8.30
2018-01-05T13:19:50.700Z,8.28
2018-01-05T13:20:50.743Z,8.38
2018-01-05T13:21:50.665Z,8.36
2018-01-05T13:22:50.596Z,8.37
2018-01-05T13:23:50.580Z,8.36
2018-01-05T13:24:50.565Z,8.43
2018-01-05T13:25:50.609Z,8.47
2018-01-05T13:26:55.067Z,8.41
2018-01-05T13:27:50.522Z,8.47
2018-01-05T13:28:51.076Z,8.40
2018-01-05T13:29:50.515Z,8.48
2018-01-05T13:34:55.602Z,8.62
2018-01-05T13:35:53.722Z,8.63
2018-01-05T13:36:53.567Z,8.59
2018-01-05T13:37:55.321Z,8.59
2018-01-05T13:38:55.367Z,8.65
2018-01-05T13:39:54.223Z,8.62
2018-01-05T13:40:53.524Z,8.50